Time;durP1;ratioP1;P1;durP2;ratioP2;P2;SDS_P1;SDS_P2;PMS_P1;PMS_P2;Temp;Humidity;BMP_temperature;BMP_pressure;BME280_temperature;BME280_humidity;BME280_pressure;Samples;Min_cycle;Max_cycle;Signal;HPM_P1;HPM_P2
2022/11/07 00:02:10;;;;;;;112.53;51.42;;;;;;;;;;5054422;28;20096;-36
2022/11/07 00:04:35;;;;;;;117.00;53.90;;;;;;;;;;5054566;28;20021;-41
2022/11/07 00:07:00;;;;;;;105.13;52.70;;;;;;;;;;5054529;28;20064;-42
2022/11/07 00:09:26;;;;;;;103.40;52.88;;;;;;;;;;5054705;28;20411;-42
2022/11/07 00:11:51;;;;;;;104.45;51.55;;;;;;;;;;5054442;28;20021;-40
2022/11/07 00:14:17;;;;;;;106.90;50.70;;;;;;;;;;5054339;28;20014;-41
2022/11/07 00:16:43;;;;;;;102.20;49.35;;;;;;;;;;5054144;28;20348;-41
2022/11/07 00:19:08;;;;;;;94.28;46.40;;;;;;;;;;5054495;28;20021;-41
2022/11/07 00:21:34;;;;;;;104.65;49.88;;;;;;;;;;5054581;28;20044;-40
2022/11/07 00:23:59;;;;;;;96.68;47.60;;;;;;;;;;5054242;28;20024;-38
2022/11/07 00:26:24;;;;;;;101.00;49.63;;;;;;;;;;5052924;28;20108;-39
2022/11/07 00:28:49;;;;;;;119.70;53.90;;;;;;;;;;5054118;28;20028;-40
2022/11/07 00:31:15;;;;;;;120.30;51.20;;;;;;;;;;5054144;28;20023;-39
2022/11/07 00:33:41;;;;;;;103.75;47.88;;;;;;;;;;5053926;28;20284;-42
2022/11/07 00:36:07;;;;;;;103.05;48.83;;;;;;;;;;5053996;28;20041;-41
2022/11/07 00:38:32;;;;;;;91.15;47.72;;;;;;;;;;5053961;28;20112;-42
2022/11/07 00:40:59;;;;;;;114.90;50.35;;;;;;;;;;5054164;28;20083;-35
2022/11/07 00:43:24;;;;;;;98.00;47.05;;;;;;;;;;5053764;28;20503;-38
2022/11/07 00:45:50;;;;;;;94.05;46.38;;;;;;;;;;5053564;28;20053;-39
2022/11/07 00:48:15;;;;;;;94.05;47.33;;;;;;;;;;5053601;28;20028;-41
2022/11/07 00:50:40;;;;;;;87.00;44.22;;;;;;;;;;5053918;28;20017;-41
2022/11/07 00:53:06;;;;;;;87.10;44.03;;;;;;;;;;5054135;28;20029;-37
2022/11/07 00:55:31;;;;;;;98.72;44.58;;;;;;;;;;5053525;28;20043;-40
2022/11/07 00:57:56;;;;;;;90.18;45.65;;;;;;;;;;5052315;28;20029;-40
2022/11/07 01:00:22;;;;;;;81.70;44.00;;;;;;;;;;5053263;28;20031;-39
2022/11/07 01:05:09;;;;;;;90.47;44.55;;;;;;;;;;5053331;28;20736;-41
2022/11/07 01:05:32;;;;;;;83.75;42.50;;;;;;;;;;5053350;28;20119;-39
2022/11/07 01:07:57;;;;;;;88.15;45.40;;;;;;;;;;5053532;28;20052;-40
2022/11/07 01:10:22;;;;;;;83.37;42.77;;;;;;;;;;5053436;28;20013;-40
2022/11/07 01:12:48;;;;;;;85.28;46.40;;;;;;;;;;5053348;28;20250;-38
2022/11/07 01:15:13;;;;;;;79.47;42.25;;;;;;;;;;5052973;28;20399;-38
2022/11/07 01:17:38;;;;;;;82.75;44.20;;;;;;;;;;5053455;28;20017;-39
2022/11/07 01:20:04;;;;;;;87.20;44.97;;;;;;;;;;5053419;28;20021;-38
2022/11/07 01:22:29;;;;;;;90.97;47.42;;;;;;;;;;5053296;28;20071;-39
2022/11/07 01:24:54;;;;;;;87.60;46.28;;;;;;;;;;5053117;28;20391;-37
2022/11/07 01:27:20;;;;;;;86.03;43.88;;;;;;;;;;5053087;28;20013;-41
2022/11/07 01:29:45;;;;;;;92.82;45.83;;;;;;;;;;5052885;28;20021;-39
2022/11/07 01:32:10;;;;;;;74.00;41.20;;;;;;;;;;5053196;28;20028;-39
2022/11/07 01:34:35;;;;;;;69.05;37.80;;;;;;;;;;5053277;28;20452;-41
2022/11/07 01:37:19;;;;;;;70.25;37.33;;;;;;;;;;5052941;28;20075;-42
2022/11/07 01:39:45;;;;;;;64.25;36.65;;;;;;;;;;5053033;28;20056;-42
2022/11/07 01:42:11;;;;;;;66.35;35.60;;;;;;;;;;5052722;28;20498;-41
2022/11/07 01:44:36;;;;;;;64.28;34.92;;;;;;;;;;5052769;28;20071;-38
2022/11/07 01:47:02;;;;;;;61.33;34.80;;;;;;;;;;5052861;28;20097;-40
2022/11/07 01:49:33;;;;;;;57.50;33.45;;;;;;;;;;5052739;28;20234;-41
2022/11/07 01:52:00;;;;;;;56.53;32.67;;;;;;;;;;5052802;28;20040;-39
2022/11/07 01:54:42;;;;;;;57.00;31.30;;;;;;;;;;5052720;28;20013;-39
2022/11/07 01:57:10;;;;;;;66.70;33.90;;;;;;;;;;5052669;28;20025;-39
2022/11/07 01:59:36;;;;;;;51.20;31.23;;;;;;;;;;5052808;28;20460;-40
2022/11/07 02:02:02;;;;;;;54.90;31.15;;;;;;;;;;5052573;28;20032;-40
2022/11/07 02:04:28;;;;;;;49.22;30.15;;;;;;;;;;5052717;28;20049;-40
2022/11/07 02:06:57;;;;;;;53.30;29.92;;;;;;;;;;5052667;28;20019;-38
2022/11/07 02:09:22;;;;;;;56.00;31.73;;;;;;;;;;5052405;28;20354;-34
2022/11/07 02:11:48;;;;;;;52.83;30.42;;;;;;;;;;5052196;28;20080;-40
2022/11/07 02:14:14;;;;;;;55.88;31.25;;;;;;;;;;5052592;28;20031;-42
2022/11/07 02:16:39;;;;;;;49.40;30.13;;;;;;;;;;5052459;28;20041;-36
2022/11/07 02:19:07;;;;;;;46.75;27.33;;;;;;;;;;5052281;28;20100;-37
2022/11/07 02:22:01;;;;;;;49.42;29.27;;;;;;;;;;5052393;28;20021;-39
2022/11/07 02:24:34;;;;;;;51.10;29.83;;;;;;;;;;5047370;28;20033;-38
2022/11/07 02:27:02;;;;;;;50.97;29.10;;;;;;;;;;5052453;28;20025;-41
2022/11/07 02:29:28;;;;;;;51.35;28.90;;;;;;;;;;5052414;28;20013;-41
2022/11/07 02:32:03;;;;;;;51.72;28.20;;;;;;;;;;5052178;28;20025;-38
2022/11/07 02:34:29;;;;;;;46.30;27.67;;;;;;;;;;5052129;28;20025;-42
2022/11/07 02:36:54;;;;;;;48.92;26.80;;;;;;;;;;5052380;28;20033;-41
2022/11/07 02:39:20;;;;;;;47.22;26.85;;;;;;;;;;5052218;28;20013;-37
2022/11/07 02:41:45;;;;;;;49.30;25.92;;;;;;;;;;5052217;28;20021;-40
2022/11/07 02:44:11;;;;;;;48.28;27.15;;;;;;;;;;5052194;28;20084;-41
2022/11/07 02:46:36;;;;;;;47.65;25.52;;;;;;;;;;5052188;28;20029;-41
2022/11/07 02:49:02;;;;;;;53.72;26.65;;;;;;;;;;5052110;28;20036;-39
2022/11/07 02:51:27;;;;;;;52.50;26.90;;;;;;;;;;5052337;28;20443;-40
2022/11/07 02:53:53;;;;;;;49.50;26.58;;;;;;;;;;5052216;28;20100;-41
2022/11/07 02:56:19;;;;;;;54.17;27.50;;;;;;;;;;5052554;28;20036;-41
2022/11/07 02:58:44;;;;;;;42.97;25.70;;;;;;;;;;5052377;28;20449;-40
2022/11/07 03:01:11;;;;;;;44.88;24.63;;;;;;;;;;5051995;28;20071;-40
2022/11/07 03:03:39;;;;;;;49.83;26.00;;;;;;;;;;5051862;28;20091;-41
2022/11/07 03:06:05;;;;;;;57.42;26.88;;;;;;;;;;5052197;28;20460;-38
2022/11/07 03:08:30;;;;;;;59.17;26.80;;;;;;;;;;5052126;28;20027;-41
2022/11/07 03:10:56;;;;;;;46.80;25.15;;;;;;;;;;5052257;28;20052;-40
2022/11/07 03:13:21;;;;;;;49.28;26.55;;;;;;;;;;5051945;28;20017;-40
2022/11/07 03:15:46;;;;;;;40.50;24.55;;;;;;;;;;5052632;28;20452;-41
2022/11/07 03:18:12;;;;;;;49.20;26.52;;;;;;;;;;5051812;28;20429;-39
2022/11/07 03:20:37;;;;;;;48.67;24.45;;;;;;;;;;5051992;28;20427;-39
2022/11/07 03:23:02;;;;;;;45.03;24.95;;;;;;;;;;5052609;28;20021;-41
2022/11/07 03:25:27;;;;;;;62.88;27.63;;;;;;;;;;5055363;28;20063;-40
2022/11/07 03:27:53;;;;;;;65.45;26.52;;;;;;;;;;5055687;28;20101;-39
2022/11/07 03:30:18;;;;;;;52.65;27.55;;;;;;;;;;5055369;28;20028;-40
2022/11/07 03:32:43;;;;;;;56.42;27.13;;;;;;;;;;5055026;28;20036;-39
2022/11/07 03:35:09;;;;;;;54.25;27.33;;;;;;;;;;5055284;28;20383;-39
2022/11/07 03:37:34;;;;;;;50.40;27.10;;;;;;;;;;5055290;28;20071;-37
2022/11/07 03:39:59;;;;;;;55.50;30.00;;;;;;;;;;5055194;28;20021;-42
2022/11/07 03:42:25;;;;;;;48.60;26.52;;;;;;;;;;5055023;28;20023;-37
2022/11/07 03:44:50;;;;;;;51.58;27.05;;;;;;;;;;5054884;28;20459;-41
2022/11/07 03:47:15;;;;;;;40.00;25.40;;;;;;;;;;5054912;28;20017;-40
2022/11/07 03:49:40;;;;;;;41.47;25.38;;;;;;;;;;5055128;28;20028;-37
2022/11/07 03:52:05;;;;;;;44.58;25.95;;;;;;;;;;5054881;28;20096;-39
2022/11/07 03:54:31;;;;;;;43.33;25.67;;;;;;;;;;5055012;28;20021;-42
2022/11/07 03:56:56;;;;;;;44.38;26.45;;;;;;;;;;5054897;28;20472;-38
2022/11/07 03:59:21;;;;;;;45.60;27.10;;;;;;;;;;5054801;28;20020;-42
2022/11/07 04:01:47;;;;;;;46.38;27.20;;;;;;;;;;5055087;28;20032;-40
2022/11/07 04:04:12;;;;;;;46.20;25.88;;;;;;;;;;5054968;28;20502;-40
2022/11/07 04:06:37;;;;;;;44.88;26.33;;;;;;;;;;5054724;28;20028;-39
2022/11/07 04:09:03;;;;;;;47.45;25.35;;;;;;;;;;5054667;28;20024;-42
2022/11/07 04:19:40;;;;;;;45.97;27.30;;;;;;;;;;5054682;28;20032;-40
2022/11/07 04:22:05;;;;;;;43.45;25.55;;;;;;;;;;5054498;28;20379;-41
2022/11/07 04:24:30;;;;;;;45.60;25.52;;;;;;;;;;5054302;28;20017;-42
2022/11/07 04:29:39;;;;;;;44.70;26.67;;;;;;;;;;5054188;28;20032;-36
2022/11/07 04:32:05;;;;;;;45.60;25.13;;;;;;;;;;5054158;28;20021;-41
2022/11/07 04:34:30;;;;;;;45.65;26.63;;;;;;;;;;5054078;28;20021;-38
2022/11/07 04:36:55;;;;;;;49.45;26.73;;;;;;;;;;5054105;28;20571;-39
2022/11/07 04:39:20;;;;;;;47.53;26.00;;;;;;;;;;5053929;28;20017;-40
2022/11/07 04:41:45;;;;;;;48.47;26.63;;;;;;;;;;5053811;28;20333;-37
2022/11/07 04:44:12;;;;;;;42.28;24.38;;;;;;;;;;5053818;28;20315;-40
2022/11/07 04:46:37;;;;;;;48.08;25.88;;;;;;;;;;5053885;28;20021;-41
2022/11/07 04:49:02;;;;;;;49.53;26.48;;;;;;;;;;5053871;28;20017;-40
2022/11/07 04:51:28;;;;;;;48.33;26.35;;;;;;;;;;5053663;28;20027;-39
2022/11/07 04:53:53;;;;;;;44.17;25.20;;;;;;;;;;5053623;28;20052;-36
2022/11/07 04:56:18;;;;;;;49.50;26.47;;;;;;;;;;5053765;28;20393;-40
2022/11/07 04:58:43;;;;;;;44.53;24.25;;;;;;;;;;5053939;28;20645;-42
2022/11/07 05:01:08;;;;;;;50.57;24.57;;;;;;;;;;5053626;28;20021;-40
2022/11/07 05:03:34;;;;;;;44.37;24.13;;;;;;;;;;5053375;28;20329;-42
2022/11/07 05:05:59;;;;;;;40.20;25.05;;;;;;;;;;5053462;28;20277;-39
2022/11/07 05:08:24;;;;;;;47.10;25.60;;;;;;;;;;5053166;28;20017;-42
2022/11/07 05:10:49;;;;;;;44.40;25.17;;;;;;;;;;5053369;28;20021;-42
2022/11/07 05:13:15;;;;;;;41.10;24.75;;;;;;;;;;5053359;28;20425;-39
2022/11/07 05:15:40;;;;;;;39.97;24.85;;;;;;;;;;5053229;28;20040;-41
2022/11/07 05:18:06;;;;;;;43.50;24.38;;;;;;;;;;5053405;28;20070;-41
2022/11/07 05:20:33;;;;;;;44.35;24.92;;;;;;;;;;5053180;28;20075;-35
2022/11/07 05:23:11;;;;;;;40.78;24.13;;;;;;;;;;5053449;28;20556;-37
2022/11/07 05:25:36;;;;;;;44.95;24.88;;;;;;;;;;5053164;28;20025;-37
2022/11/07 05:28:01;;;;;;;47.65;24.75;;;;;;;;;;5053497;28;20029;-40
2022/11/07 05:30:27;;;;;;;45.38;25.17;;;;;;;;;;5052964;28;20020;-40
2022/11/07 05:32:52;;;;;;;65.68;33.35;;;;;;;;;;5052941;28;20028;-39
2022/11/07 05:35:17;;;;;;;70.45;33.78;;;;;;;;;;5052691;28;20032;-41
2022/11/07 05:37:42;;;;;;;66.30;32.77;;;;;;;;;;5052646;28;20362;-41
2022/11/07 05:40:08;;;;;;;47.65;27.52;;;;;;;;;;5052905;28;20242;-34
2022/11/07 05:42:33;;;;;;;47.92;26.98;;;;;;;;;;5052417;28;20457;-42
2022/11/07 05:44:58;;;;;;;53.28;28.73;;;;;;;;;;5052601;28;20044;-38
2022/11/07 05:47:24;;;;;;;46.00;26.40;;;;;;;;;;5052025;28;20372;-39
2022/11/07 05:49:49;;;;;;;47.10;25.07;;;;;;;;;;5052529;28;20278;-40
2022/11/07 05:52:14;;;;;;;53.03;26.83;;;;;;;;;;5052624;28;20243;-41
2022/11/07 05:54:39;;;;;;;45.60;25.08;;;;;;;;;;5052741;28;20246;-41
2022/11/07 05:57:05;;;;;;;49.73;24.80;;;;;;;;;;5052737;28;20061;-38
2022/11/07 05:59:30;;;;;;;47.63;24.33;;;;;;;;;;5052711;28;20721;-38
2022/11/07 06:01:55;;;;;;;46.72;24.45;;;;;;;;;;5052512;28;20614;-40
2022/11/07 06:04:20;;;;;;;47.30;24.17;;;;;;;;;;5052341;28;20077;-40
2022/11/07 06:06:46;;;;;;;47.50;24.50;;;;;;;;;;5052244;28;20025;-39
2022/11/07 06:09:11;;;;;;;45.25;23.80;;;;;;;;;;5052252;28;20023;-41
2022/11/07 06:11:36;;;;;;;47.72;24.08;;;;;;;;;;5052655;28;20036;-40
2022/11/07 06:14:02;;;;;;;50.85;24.88;;;;;;;;;;5052360;28;20025;-34
2022/11/07 06:16:27;;;;;;;43.90;23.35;;;;;;;;;;5052188;28;20033;-38
2022/11/07 06:18:52;;;;;;;54.75;23.70;;;;;;;;;;5052420;28;20025;-41
2022/11/07 06:21:17;;;;;;;46.17;23.30;;;;;;;;;;5052190;28;20428;-38
2022/11/07 06:23:43;;;;;;;49.60;23.77;;;;;;;;;;5052159;28;20023;-39
2022/11/07 06:26:08;;;;;;;44.03;23.00;;;;;;;;;;5052370;28;20078;-40
2022/11/07 06:28:33;;;;;;;39.50;23.10;;;;;;;;;;5052277;28;20013;-37
2022/11/07 06:30:59;;;;;;;43.80;21.52;;;;;;;;;;5052463;28;20031;-40
2022/11/07 06:33:24;;;;;;;41.97;22.60;;;;;;;;;;5052128;28;20029;-39
2022/11/07 06:35:50;;;;;;;42.00;21.58;;;;;;;;;;5051967;28;20029;-41
2022/11/07 06:38:15;;;;;;;39.22;20.40;;;;;;;;;;5052295;28;20108;-41
2022/11/07 06:40:41;;;;;;;40.55;20.85;;;;;;;;;;5075175;28;20023;-37
2022/11/07 06:43:13;;;;;;;39.80;21.83;;;;;;;;;;5084340;28;20020;-42
2022/11/07 06:45:39;;;;;;;42.60;21.13;;;;;;;;;;5076601;28;20063;-41
2022/11/07 06:48:04;;;;;;;40.92;22.08;;;;;;;;;;5072313;28;20449;-43
2022/11/07 06:50:29;;;;;;;45.42;21.17;;;;;;;;;;5058924;28;20057;-43
2022/11/07 06:52:55;;;;;;;48.60;21.92;;;;;;;;;;5066264;28;20032;-42
2022/11/07 06:55:20;;;;;;;40.97;21.83;;;;;;;;;;5064531;28;20077;-38
2022/11/07 06:57:46;;;;;;;46.25;22.17;;;;;;;;;;5060294;28;20122;-38
2022/11/07 07:00:12;;;;;;;54.80;25.77;;;;;;;;;;5060895;28;20934;-42
2022/11/07 07:02:37;;;;;;;53.33;25.60;;;;;;;;;;5060656;28;20021;-41
2022/11/07 07:05:02;;;;;;;53.17;23.33;;;;;;;;;;5071339;28;20384;-44
2022/11/07 07:07:28;;;;;;;46.17;22.65;;;;;;;;;;5060711;28;20024;-43
2022/11/07 07:09:53;;;;;;;42.40;22.08;;;;;;;;;;5056375;28;20016;-42
2022/11/07 07:12:18;;;;;;;41.75;21.70;;;;;;;;;;5058734;28;20016;-42
2022/11/07 07:14:44;;;;;;;44.20;22.67;;;;;;;;;;5067335;28;20024;-43
2022/11/07 07:17:11;;;;;;;41.45;21.60;;;;;;;;;;5065043;28;20064;-42
2022/11/07 07:19:36;;;;;;;43.40;22.27;;;;;;;;;;5062406;28;20131;-42
2022/11/07 07:22:01;;;;;;;50.40;23.30;;;;;;;;;;5067735;28;20103;-41
2022/11/07 07:24:27;;;;;;;49.70;22.98;;;;;;;;;;5054368;28;20017;-40
2022/11/07 07:26:52;;;;;;;48.65;22.17;;;;;;;;;;5065035;28;20033;-43
2022/11/07 07:29:17;;;;;;;42.05;23.10;;;;;;;;;;5071428;28;20048;-42
2022/11/07 07:31:44;;;;;;;40.85;21.88;;;;;;;;;;5064752;28;20012;-40
2022/11/07 07:34:10;;;;;;;55.50;26.02;;;;;;;;;;5057597;28;20502;-43
2022/11/07 07:36:35;;;;;;;53.00;26.67;;;;;;;;;;5055682;28;20067;-42
2022/11/07 07:39:00;;;;;;;53.65;25.63;;;;;;;;;;5056359;28;20016;-42
2022/11/07 07:41:26;;;;;;;43.60;24.17;;;;;;;;;;5064263;28;20020;-42
2022/11/07 07:43:51;;;;;;;45.92;24.50;;;;;;;;;;5060604;28;20029;-44
2022/11/07 07:46:18;;;;;;;41.30;22.23;;;;;;;;;;5060313;28;20091;-43
2022/11/07 07:48:43;;;;;;;42.03;22.35;;;;;;;;;;5065009;28;20361;-41
2022/11/07 07:51:08;;;;;;;39.97;20.83;;;;;;;;;;5053838;28;20027;-41
2022/11/07 07:53:34;;;;;;;42.03;22.77;;;;;;;;;;5062731;28;20020;-43
2022/11/07 07:56:01;;;;;;;39.90;22.20;;;;;;;;;;5058375;28;20036;-40
2022/11/07 07:58:26;;;;;;;39.17;21.48;;;;;;;;;;5061798;28;20032;-44
2022/11/07 08:00:52;;;;;;;39.42;19.77;;;;;;;;;;5058055;28;20379;-46
2022/11/07 08:03:18;;;;;;;34.20;19.83;;;;;;;;;;5062563;28;20149;-46
2022/11/07 08:05:43;;;;;;;32.47;19.55;;;;;;;;;;5054769;28;20025;-44
2022/11/07 08:08:10;;;;;;;35.47;18.75;;;;;;;;;;5056364;28;20021;-42
2022/11/07 08:10:35;;;;;;;32.47;17.85;;;;;;;;;;5060339;28;20021;-44
2022/11/07 08:13:01;;;;;;;33.47;18.48;;;;;;;;;;5058735;28;20052;-46
2022/11/07 08:15:26;;;;;;;34.13;18.50;;;;;;;;;;5053902;28;20099;-41
2022/11/07 08:17:52;;;;;;;30.77;17.20;;;;;;;;;;5059406;28;20052;-43
2022/11/07 08:20:23;;;;;;;27.77;16.33;;;;;;;;;;5062327;28;20021;-42
2022/11/07 08:22:48;;;;;;;29.40;16.70;;;;;;;;;;5063597;28;20029;-43
2022/11/07 08:25:14;;;;;;;32.53;16.83;;;;;;;;;;5053133;28;20456;-42
2022/11/07 08:27:39;;;;;;;29.23;16.48;;;;;;;;;;5065590;28;20098;-41
2022/11/07 08:30:06;;;;;;;31.30;16.83;;;;;;;;;;5067874;28;20668;-45
2022/11/07 08:32:31;;;;;;;33.08;17.38;;;;;;;;;;5059788;28;20099;-46
2022/11/07 08:34:56;;;;;;;25.55;15.88;;;;;;;;;;5052061;28;20146;-42
2022/11/07 08:37:22;;;;;;;30.25;17.58;;;;;;;;;;5063380;28;20029;-43
2022/11/07 08:39:47;;;;;;;29.45;18.33;;;;;;;;;;5060574;28;20140;-41
2022/11/07 08:42:13;;;;;;;33.10;17.55;;;;;;;;;;5064149;28;20021;-42
2022/11/07 08:44:38;;;;;;;32.42;17.73;;;;;;;;;;5063731;28;20527;-40
2022/11/07 08:47:04;;;;;;;36.83;19.20;;;;;;;;;;5053911;28;20483;-40
2022/11/07 08:49:29;;;;;;;105.20;57.10;;;;;;;;;;5056744;28;20432;-43
2022/11/07 08:51:54;;;;;;;64.78;36.38;;;;;;;;;;5059399;28;20108;-46
2022/11/07 08:54:20;;;;;;;64.97;35.22;;;;;;;;;;5053771;28;20099;-40
2022/11/07 08:56:46;;;;;;;44.50;24.27;;;;;;;;;;5052884;28;20068;-42
2022/11/07 08:59:11;;;;;;;38.13;20.33;;;;;;;;;;5069323;28;20033;-40
2022/11/07 09:01:36;;;;;;;41.95;21.95;;;;;;;;;;5062532;28;20134;-40
2022/11/07 09:04:02;;;;;;;38.00;18.75;;;;;;;;;;5051219;28;20036;-41
2022/11/07 09:06:27;;;;;;;34.53;19.27;;;;;;;;;;5055495;28;20021;-42
2022/11/07 09:08:52;;;;;;;41.88;19.92;;;;;;;;;;5063714;28;20035;-39
2022/11/07 09:11:18;;;;;;;38.53;19.55;;;;;;;;;;5055941;28;20021;-41
2022/11/07 09:13:43;;;;;;;37.55;19.52;;;;;;;;;;5061731;28;20013;-42
2022/11/07 09:16:09;;;;;;;49.80;21.48;;;;;;;;;;5071305;28;20036;-41
2022/11/07 09:18:34;;;;;;;42.92;21.23;;;;;;;;;;5057900;28;20043;-42
2022/11/07 09:21:00;;;;;;;37.28;20.05;;;;;;;;;;5060184;28;20013;-42
2022/11/07 09:23:25;;;;;;;40.85;21.58;;;;;;;;;;5055382;28;20017;-46
2022/11/07 09:25:51;;;;;;;42.38;21.50;;;;;;;;;;5054462;28;20128;-39
2022/11/07 09:28:16;;;;;;;42.60;22.60;;;;;;;;;;5055171;28;20021;-40
2022/11/07 09:30:42;;;;;;;51.58;24.23;;;;;;;;;;5058057;28;20104;-36
2022/11/07 09:33:07;;;;;;;53.90;24.30;;;;;;;;;;5053207;28;20053;-41
2022/11/07 09:35:32;;;;;;;43.20;23.38;;;;;;;;;;5051711;28;20123;-42
2022/11/07 09:37:58;;;;;;;51.00;24.73;;;;;;;;;;5058803;28;20382;-41
2022/11/07 09:40:29;;;;;;;50.30;23.98;;;;;;;;;;5070655;28;20079;-42
2022/11/07 09:43:01;;;;;;;49.83;21.80;;;;;;;;;;5064545;28;20031;-40
2022/11/07 09:45:27;;;;;;;44.90;21.27;;;;;;;;;;5049923;28;20099;-40
2022/11/07 09:48:02;;;;;;;44.70;22.80;;;;;;;;;;5052533;28;20021;-41
2022/11/07 09:50:36;;;;;;;57.78;22.63;;;;;;;;;;5060333;28;20029;-43
2022/11/07 09:53:04;;;;;;;48.47;22.52;;;;;;;;;;5055273;28;20025;-40
2022/11/07 09:55:32;;;;;;;46.47;22.48;;;;;;;;;;5056636;28;20143;-39
2022/11/07 09:57:59;;;;;;;46.70;23.27;;;;;;;;;;5055382;28;20060;-42
2022/11/07 10:00:27;;;;;;;44.42;23.63;;;;;;;;;;5070435;28;20028;-41
2022/11/07 10:02:54;;;;;;;42.92;21.77;;;;;;;;;;5057441;28;20016;-40
2022/11/07 10:05:39;;;;;;;62.95;23.42;;;;;;;;;;5058642;28;20032;-41
2022/11/07 10:08:34;;;;;;;51.55;23.73;;;;;;;;;;5057660;28;20086;-44
2022/11/07 10:11:04;;;;;;;50.00;24.20;;;;;;;;;;5024822;28;20099;-40
2022/11/07 10:13:39;;;;;;;45.88;24.48;;;;;;;;;;5050502;28;20037;-38
2022/11/07 10:16:04;;;;;;;50.25;24.13;;;;;;;;;;5056957;28;20044;-40
2022/11/07 10:18:38;;;;;;;51.20;22.77;;;;;;;;;;5054938;28;20020;-42
2022/11/07 10:21:28;;;;;;;44.97;22.60;;;;;;;;;;5053065;28;20029;-41
2022/11/07 10:24:02;;;;;;;51.35;23.55;;;;;;;;;;5049538;28;20021;-41
2022/11/07 10:26:29;;;;;;;47.80;24.55;;;;;;;;;;5052202;28;20025;-41
2022/11/07 10:28:55;;;;;;;49.60;23.83;;;;;;;;;;5063606;28;20732;-41
2022/11/07 10:31:22;;;;;;;49.95;23.90;;;;;;;;;;5061161;28;20021;-43
2022/11/07 10:33:47;;;;;;;43.20;23.20;;;;;;;;;;5057046;28;20072;-41
2022/11/07 10:36:23;;;;;;;41.60;23.85;;;;;;;;;;5055232;28;20043;-41
2022/11/07 10:38:49;;;;;;;48.20;25.33;;;;;;;;;;5055652;28;20104;-42
2022/11/07 10:41:15;;;;;;;49.05;24.17;;;;;;;;;;5065207;28;20109;-40
2022/11/07 10:43:42;;;;;;;52.30;24.50;;;;;;;;;;5064473;28;20082;-42
2022/11/07 10:46:14;;;;;;;39.40;22.13;;;;;;;;;;5076637;28;20055;-41
2022/11/07 10:48:49;;;;;;;44.20;24.25;;;;;;;;;;5058693;28;20064;-41
2022/11/07 10:51:15;;;;;;;47.92;24.58;;;;;;;;;;5075196;28;20020;-40
2022/11/07 10:53:43;;;;;;;48.80;24.15;;;;;;;;;;5070182;28;20044;-40
2022/11/07 10:56:10;;;;;;;46.35;25.00;;;;;;;;;;5055333;28;20040;-36
2022/11/07 10:58:41;;;;;;;46.00;23.77;;;;;;;;;;5055925;28;20288;-39
2022/11/07 11:01:08;;;;;;;48.20;23.40;;;;;;;;;;5056356;28;20428;-39
2022/11/07 11:03:46;;;;;;;51.17;25.20;;;;;;;;;;5064468;28;20546;-38
2022/11/07 11:06:20;;;;;;;56.67;23.92;;;;;;;;;;5055380;28;20051;-42
2022/11/07 11:08:46;;;;;;;45.78;22.98;;;;;;;;;;5060367;28;20062;-44
2022/11/07 11:11:12;;;;;;;58.78;26.08;;;;;;;;;;5066948;28;20037;-40
2022/11/07 11:13:38;;;;;;;52.92;24.35;;;;;;;;;;5054154;28;20021;-42
2022/11/07 11:16:12;;;;;;;47.28;22.10;;;;;;;;;;5054635;28;20461;-39
2022/11/07 11:18:38;;;;;;;52.92;24.38;;;;;;;;;;5054745;28;20031;-38
2022/11/07 11:21:05;;;;;;;43.72;22.58;;;;;;;;;;5060881;28;20016;-43
2022/11/07 11:23:34;;;;;;;50.97;22.75;;;;;;;;;;5074503;28;20082;-43
2022/11/07 11:26:24;;;;;;;51.00;25.17;;;;;;;;;;5074756;28;20016;-43
2022/11/07 11:28:54;;;;;;;47.78;21.23;;;;;;;;;;5061914;28;20487;-40
2022/11/07 11:31:33;;;;;;;48.65;23.08;;;;;;;;;;5060427;28;20519;-42
2022/11/07 11:33:59;;;;;;;44.90;21.60;;;;;;;;;;5063321;28;20064;-42
2022/11/07 11:36:28;;;;;;;52.95;21.55;;;;;;;;;;5075070;28;20079;-45
2022/11/07 11:38:53;;;;;;;46.47;21.90;;;;;;;;;;5067211;28;20054;-46
2022/11/07 11:41:26;;;;;;;46.38;20.38;;;;;;;;;;5073101;28;20538;-42
2022/11/07 11:44:02;;;;;;;48.53;21.55;;;;;;;;;;5061944;28;20100;-43
2022/11/07 11:46:44;;;;;;;44.22;21.38;;;;;;;;;;5065935;28;20061;-42
2022/11/07 11:49:27;;;;;;;50.28;20.83;;;;;;;;;;5060250;28;20028;-42
2022/11/07 11:52:00;;;;;;;57.60;21.00;;;;;;;;;;5066397;28;20036;-41
2022/11/07 11:54:25;;;;;;;43.08;20.05;;;;;;;;;;5064446;28;20577;-43
2022/11/07 11:56:55;;;;;;;45.30;19.45;;;;;;;;;;5067285;28;20037;-44
2022/11/07 11:59:39;;;;;;;48.97;21.85;;;;;;;;;;5055534;28;20029;-43
2022/11/07 12:02:23;;;;;;;50.50;21.50;;;;;;;;;;5053810;28;20033;-42
2022/11/07 12:04:48;;;;;;;51.90;21.77;;;;;;;;;;5061970;28;20114;-38
2022/11/07 12:07:20;;;;;;;55.38;22.20;;;;;;;;;;5054308;28;20075;-42
2022/11/07 12:09:45;;;;;;;61.63;26.98;;;;;;;;;;5062487;28;20025;-41
2022/11/07 12:12:14;;;;;;;46.65;21.02;;;;;;;;;;5073851;28;20368;-41
2022/11/07 12:14:49;;;;;;;52.25;21.83;;;;;;;;;;5059094;28;20024;-44
2022/11/07 12:17:20;;;;;;;55.60;21.98;;;;;;;;;;5066330;28;20143;-42
2022/11/07 12:19:49;;;;;;;46.00;18.38;;;;;;;;;;5064937;28;20319;-44
2022/11/07 12:22:29;;;;;;;42.83;19.80;;;;;;;;;;5077003;28;20032;-40
2022/11/07 12:24:59;;;;;;;47.90;20.58;;;;;;;;;;5073757;28;20035;-42
2022/11/07 12:27:31;;;;;;;46.70;19.02;;;;;;;;;;5053792;28;20496;-42
2022/11/07 12:30:02;;;;;;;43.15;18.85;;;;;;;;;;5066821;28;20027;-42
2022/11/07 12:32:38;;;;;;;55.30;19.73;;;;;;;;;;5072823;28;20031;-39
2022/11/07 12:35:22;;;;;;;49.55;18.85;;;;;;;;;;5066459;28;20021;-39
2022/11/07 12:37:47;;;;;;;43.10;18.15;;;;;;;;;;5055858;28;20033;-41
2022/11/07 12:40:22;;;;;;;38.08;17.95;;;;;;;;;;5060201;28;20146;-43
2022/11/07 12:43:03;;;;;;;41.80;17.70;;;;;;;;;;5056951;28;20032;-41
2022/11/07 12:45:44;;;;;;;40.78;18.58;;;;;;;;;;5057715;28;20057;-41
2022/11/07 12:48:23;;;;;;;50.15;17.23;;;;;;;;;;5061435;28;20032;-41
2022/11/07 12:50:57;;;;;;;42.30;17.83;;;;;;;;;;5061639;28;20029;-40
2022/11/07 12:53:29;;;;;;;42.63;17.50;;;;;;;;;;5063253;28;20067;-43
2022/11/07 12:56:00;;;;;;;37.08;16.40;;;;;;;;;;5058712;28;20033;-42
2022/11/07 12:58:29;;;;;;;37.35;17.25;;;;;;;;;;5052857;28;20074;-43
2022/11/07 13:00:54;;;;;;;41.47;18.17;;;;;;;;;;5058574;28;20025;-44
2022/11/07 13:03:20;;;;;;;50.65;18.70;;;;;;;;;;5055226;28;20093;-42
2022/11/07 13:05:58;;;;;;;49.53;17.75;;;;;;;;;;5057449;28;20024;-42
2022/11/07 13:08:26;;;;;;;39.47;17.65;;;;;;;;;;5055451;28;20032;-39
2022/11/07 13:11:08;;;;;;;38.42;16.60;;;;;;;;;;5065252;28;20025;-42
2022/11/07 13:13:40;;;;;;;37.40;16.50;;;;;;;;;;5061970;28;20036;-43
2022/11/07 13:16:22;;;;;;;41.08;17.90;;;;;;;;;;5054811;28;20037;-42
2022/11/07 13:18:47;;;;;;;36.80;17.80;;;;;;;;;;5068065;28;20434;-45
2022/11/07 13:21:13;;;;;;;42.35;18.80;;;;;;;;;;5054244;28;20081;-39
2022/11/07 13:23:39;;;;;;;43.45;18.40;;;;;;;;;;5055306;28;20024;-43
2022/11/07 13:26:05;;;;;;;47.35;19.95;;;;;;;;;;5056322;28;20043;-43
2022/11/07 13:28:39;;;;;;;43.40;19.00;;;;;;;;;;5062038;28;20020;-42
2022/11/07 13:31:06;;;;;;;40.00;17.88;;;;;;;;;;5053410;28;20056;-40
2022/11/07 13:33:33;;;;;;;54.75;20.23;;;;;;;;;;5055189;28;20017;-41
2022/11/07 13:36:12;;;;;;;59.55;20.92;;;;;;;;;;5062258;28;20128;-41
2022/11/07 13:38:49;;;;;;;46.17;19.08;;;;;;;;;;5062937;28;20071;-41
2022/11/07 13:41:14;;;;;;;43.85;18.67;;;;;;;;;;5053285;28;20037;-44
2022/11/07 13:43:41;;;;;;;46.80;18.00;;;;;;;;;;5054502;28;20451;-43
2022/11/07 13:46:16;;;;;;;44.95;17.90;;;;;;;;;;5053036;28;20053;-43
2022/11/07 13:48:50;;;;;;;41.95;18.23;;;;;;;;;;5048977;28;20028;-45
2022/11/07 13:51:21;;;;;;;41.55;17.90;;;;;;;;;;5052153;28;20043;-41
2022/11/07 13:54:05;;;;;;;38.83;17.80;;;;;;;;;;5052097;28;20025;-45
2022/11/07 13:56:36;;;;;;;49.78;17.95;;;;;;;;;;5060709;28;20044;-43
2022/11/07 13:59:04;;;;;;;39.92;17.60;;;;;;;;;;5060880;28;20033;-42
2022/11/07 14:01:39;;;;;;;43.92;18.15;;;;;;;;;;5054342;28;20029;-39
2022/11/07 14:04:12;;;;;;;38.75;17.33;;;;;;;;;;5060636;28;20476;-41
2022/11/07 14:06:37;;;;;;;36.95;15.90;;;;;;;;;;5051773;28;20640;-40
2022/11/07 14:09:04;;;;;;;37.33;14.57;;;;;;;;;;5055562;28;20025;-40
2022/11/07 14:11:33;;;;;;;39.17;16.42;;;;;;;;;;5057622;28;20484;-43
2022/11/07 14:13:58;;;;;;;;;;;;;;;;;;5051342;28;20163;-41
2022/11/07 14:16:25;;;;;;;31.97;15.53;;;;;;;;;;5056017;28;19999;-42
2022/11/07 14:18:55;;;;;;;30.73;14.00;;;;;;;;;;5054700;28;20025;-42
2022/11/07 14:21:24;;;;;;;34.30;13.70;;;;;;;;;;5051788;28;20464;-41
2022/11/07 14:23:49;;;;;;;32.95;15.20;;;;;;;;;;5060413;28;20400;-39
2022/11/07 14:26:26;;;;;;;30.33;13.82;;;;;;;;;;5050800;28;20033;-40
2022/11/07 14:28:52;;;;;;;28.48;13.35;;;;;;;;;;5050976;28;20099;-44
2022/11/07 14:31:23;;;;;;;28.20;13.07;;;;;;;;;;5057682;28;20039;-43